Summerfield, NC (27358)

5:36 PM EDT on August 03, 2015 (GMT -0400)
Stable Ridge Subdivision | | Change Station
CLOSE
Current Station
Personal Weather Station
Location: Summerfield, NC
Elevation: 837 ft
Nearby Weather Stations

Elev 837 ft 36.19 °N, 79.87 °W | Updated 28 seconds ago

Partly Cloudy
Partly Cloudy
93.0 °F
Feels Like 100 °F
N
0.0
Wind Variable Wind from WSW
Gusts 0.0 mph

Today
High -- | Low -- °F
--% Chance of Precip.
Yesterday
High -- | Low -- °F
Precip. -- in
6:27 AM 8:23 PM
Waning Gibbous, 84% visible
Pressure 29.87 in
Visibility 10.0 miles
Clouds Scattered Clouds 6000 ft
Scattered Clouds 25000 ft
Heat Index 100 °F
Dew Point 70 °F
Humidity 48%
Rainfall 0.00 in
Snow Depth Not available.
UV 1.7 out of 12
Pollen 5.50 out of 12
Air Quality Not available.
Flu Activity Not available.
METAR KGSO 032054Z 17004KT 10SM SCT060 SCT250 33/16 A2991 RMK AO2 SLP113 T03330161 56007

More Conditions Fewer Conditions

Pressure 29.87 in
Visibility 10.0 miles
Clouds Scattered Clouds 6000 ft
Scattered Clouds 25000 ft
Heat Index 100 °F
Dew Point 70 °F
Humidity 48%
Rainfall 0.00 in
Snow Depth Not available.
UV 1.7 out of 12
Pollen 5.50 out of 12
Air Quality Not available.
Flu Activity Not available.
METAR KGSO 032054Z 17004KT 10SM SCT060 SCT250 33/16 A2991 RMK AO2 SLP113 T03330161 56007

More Conditions Fewer Conditions

10-Day Weather Forecast

×

Almanac

Astronomy

Aug. 03, 2015 Rise Set
Actual Time
Civil Twilight
Nautical Twilight
Astronomical Twilight
Moon
Length of Visible Light
Length of Day
Tomorrow will be .
, % of the Moon is Illuminated

Today's Extremes

State Highs State Lows

Community

WunderPhotos

Upload Photos

1,843,772 photos uploaded!

WunderBlogs® & News

Nearby

Air Quality

  Air Quality AQ Index Pollutant
Not available.

Snow Depth

Station Depth Elevation

Earthquake Activity

City Distance Mag. Time & Date
Minimum magnitude displayed is 2.5.

Coastal Water Temperatures

Place Temperature

Stations

Nearby Weather Stations

Station Location Temp. Windchill Dew Point Humidity Wind Precip. Elev Updated Type